Monkton, Maryland
Current Conditions -  °F | °C
As of 3:45 PM on Friday 31 Oct 2014 (Local Time) from KMTN Reporting Station
Broken Clouds Broken Clouds  
Wind Chill: 55°   Ceiling: 5000
Heat Index: 55°   Visibility: 10mi
Dew Point: 41°   Wind: 6mph
Humidity: 58%   Direction: 190°S
Pressure: 29.89"   Gusts: NA
Location:  39.58°N, 76.61°W
Report Text: KMTN 311945Z 19005KT 10SM BKN050 13/05 A2989
Loading
Personal Weather Stations






























Interactive Weather Map New forecast layout! Learn more

10-Day Weather Forecast

Advertisements
Track Severe Weather on mobile